Time;durP1;ratioP1;P1;durP2;ratioP2;P2;SDS_P1;SDS_P2;PMS_P1;PMS_P2;Temp;Humidity;BMP_temperature;BMP_pressure;BME280_temperature;BME280_humidity;BME280_pressure;Samples;Min_cycle;Max_cycle;Signal;HPM_P1;HPM_P2
2022/05/21 00:00:27;;;;;;;2.92;1.95;;;;;;;21.60;53.02;101535.02;1665743;85;21572;-46
2022/05/21 00:02:54;;;;;;;3.83;2.17;;;;;;;21.59;53.03;101530.69;1668593;84;20981;-50
2022/05/21 00:05:22;;;;;;;4.72;2.20;;;;;;;21.59;53.03;101532.01;1623766;86;21482;-49
2022/05/21 00:07:50;;;;;;;14.13;2.95;;;;;;;21.58;53.05;101531.61;1638203;86;21084;-46
2022/05/21 00:10:17;;;;;;;8.70;3.62;;;;;;;21.56;53.18;101534.34;1652850;85;21063;-49
2022/05/21 00:12:44;;;;;;;8.93;3.37;;;;;;;21.58;53.21;101534.25;1647477;85;21100;-50
2022/05/21 00:15:13;;;;;;;7.17;4.17;;;;;;;21.57;53.27;101532.56;1642201;86;21121;-51
2022/05/21 00:17:40;;;;;;;6.70;3.17;;;;;;;21.55;53.39;101530.47;1651968;86;21129;-49
2022/05/21 00:20:47;;;;;;;9.70;3.37;;;;;;;21.57;53.48;101525.94;1645332;85;21041;-46
2022/05/21 00:22:37;;;;;;;7.78;3.40;;;;;;;21.54;53.50;101519.47;1649365;85;21057;-49
2022/05/21 00:25:05;;;;;;;10.70;3.37;;;;;;;21.53;53.61;101517.78;1672572;85;21056;-50
2022/05/21 00:27:32;;;;;;;5.03;2.98;;;;;;;21.52;53.69;101510.76;1675398;85;21092;-47
2022/05/21 00:29:59;;;;;;;3.35;2.52;;;;;;;21.50;53.78;101510.85;1698253;83;21115;-49
2022/05/21 00:32:25;;;;;;;3.95;2.37;;;;;;;21.49;53.87;101517.56;1668118;84;21053;-47
2022/05/21 00:34:52;;;;;;;4.60;2.42;;;;;;;21.49;53.91;101514.92;1678976;84;21092;-48
2022/05/21 00:37:19;;;;;;;4.50;2.77;;;;;;;21.46;53.90;101512.42;1671400;84;21019;-49
2022/05/21 00:39:46;;;;;;;4.53;2.67;;;;;;;21.45;54.00;101509.41;1693063;84;21029;-47
2022/05/21 00:42:13;;;;;;;6.55;2.40;;;;;;;21.43;54.07;101505.98;1663404;85;21059;-50
2022/05/21 00:44:40;;;;;;;3.85;2.30;;;;;;;21.42;54.02;101504.27;1668142;85;21042;-46
2022/05/21 00:47:07;;;;;;;3.50;2.40;;;;;;;21.41;54.07;101513.16;1653639;85;21090;-50
2022/05/21 00:49:34;;;;;;;8.68;3.27;;;;;;;21.40;54.01;101500.38;1643654;86;21085;-50
2022/05/21 00:52:17;;;;;;;6.87;2.85;;;;;;;21.41;53.97;101510.52;1663020;84;21056;-47
2022/05/21 00:54:48;;;;;;;4.55;2.20;;;;;;;21.39;53.92;101499.98;1664254;85;21109;-49
2022/05/21 00:57:35;;;;;;;4.08;2.50;;;;;;;21.40;53.82;101492.91;1658084;84;21519;-50
2022/05/21 01:00:22;;;;;;;7.72;2.77;;;;;;;21.38;53.78;101494.78;1655657;84;21018;-45
2022/05/21 01:02:55;;;;;;;4.15;2.67;;;;;;;21.38;53.78;101488.16;1656981;84;21077;-48
2022/05/21 01:05:25;;;;;;;4.05;2.65;;;;;;;21.36;53.75;101478.13;1686034;84;21097;-47
2022/05/21 01:07:59;;;;;;;7.60;2.20;;;;;;;21.34;53.82;101478.22;1659336;85;21059;-46
2022/05/21 01:10:29;;;;;;;3.70;2.33;;;;;;;21.33;53.75;101467.72;1685754;85;21562;-48
2022/05/21 01:12:56;;;;;;;6.92;2.80;;;;;;;21.32;53.88;101467.32;1695863;83;21014;-47
2022/05/21 01:15:33;;;;;;;9.05;3.12;;;;;;;21.30;53.85;101457.28;1683488;84;21058;-49
2022/05/21 01:18:00;;;;;;;4.03;2.70;;;;;;;21.29;53.85;101459.56;1628720;88;21541;-49
2022/05/21 01:20:44;;;;;;;6.97;3.25;;;;;;;21.29;53.94;101455.59;1604982;89;21078;-51
2022/05/21 01:23:12;;;;;;;5.92;3.22;;;;;;;21.27;54.07;101448.20;1605602;89;21033;-50
2022/05/21 01:25:39;;;;;;;10.15;3.92;;;;;;;21.26;54.19;101453.09;1632846;88;21096;-51
2022/05/21 01:28:09;;;;;;;6.30;3.85;;;;;;;21.24;54.18;101449.68;1605652;89;21154;-50
2022/05/21 01:30:46;;;;;;;9.03;3.58;;;;;;;21.22;54.22;101451.56;1632985;88;21048;-52
2022/05/21 01:33:16;;;;;;;5.62;2.77;;;;;;;21.20;54.28;101450.33;1532622;94;21145;-49
2022/05/21 01:35:44;;;;;;;9.80;3.20;;;;;;;21.18;54.27;101458.82;1557344;92;21112;-48
2022/05/21 01:38:12;;;;;;;6.62;3.10;;;;;;;21.15;54.34;101456.79;1543034;92;21551;-51
2022/05/21 01:40:41;;;;;;;7.35;4.00;;;;;;;21.13;54.42;101454.69;1557654;92;21532;-48
2022/05/21 01:45:54;;;;;;;10.85;3.90;;;;;;;21.07;54.61;101445.30;1531165;94;21582;-49
2022/05/21 01:48:23;;;;;;;11.60;3.98;;;;;;;21.04;54.79;101446.32;1541825;93;21618;-47
2022/05/21 01:50:51;;;;;;;15.78;4.12;;;;;;;21.02;54.80;101442.90;1557876;91;21572;-50
2022/05/21 01:53:19;;;;;;;9.08;3.12;;;;;;;21.01;54.88;101441.17;1542991;92;21105;-47
2022/05/21 01:55:47;;;;;;;8.00;3.20;;;;;;;20.99;54.90;101440.41;1557755;92;21102;-49
2022/05/21 01:58:14;;;;;;;7.95;3.65;;;;;;;20.99;54.91;101434.25;1543108;92;21145;-50
2022/05/21 02:00:41;;;;;;;7.95;2.95;;;;;;;20.97;54.93;101436.98;1557663;92;21061;-53
2022/05/21 02:03:11;;;;;;;5.35;2.95;;;;;;;20.95;54.87;101432.25;1535303;93;21622;-48
2022/05/21 02:05:39;;;;;;;6.40;3.42;;;;;;;20.95;54.89;101432.25;1520929;92;21577;-49
2022/05/21 02:08:08;;;;;;;5.70;3.02;;;;;;;20.93;54.92;101426.19;1510051;91;21221;-49
2022/05/21 02:10:34;;;;;;;8.90;3.30;;;;;;;20.93;54.90;101421.36;1524578;93;21533;-50
2022/05/21 02:13:02;;;;;;;11.00;3.30;;;;;;;20.92;54.96;101425.78;1541035;92;21096;-50
2022/05/21 02:15:30;;;;;;;9.13;3.35;;;;;;;20.93;54.92;101425.33;1590797;88;21630;-48
2022/05/21 02:17:57;;;;;;;9.13;3.27;;;;;;;20.92;54.97;101424.46;1582620;88;21041;-47
2022/05/21 02:20:24;;;;;;;8.20;4.47;;;;;;;20.90;55.01;101427.66;1605916;88;21049;-48
2022/05/21 02:22:51;;;;;;;11.93;3.55;;;;;;;20.89;54.95;101431.26;1597761;87;21176;-51
2022/05/21 02:25:20;;;;;;;7.90;3.80;;;;;;;20.94;54.86;101429.20;1606503;88;22395;-47
2022/05/21 02:27:48;;;;;;;11.40;3.52;;;;;;;20.96;54.80;101433.08;1611803;87;21601;-49
2022/05/21 02:30:15;;;;;;;12.13;3.75;;;;;;;20.89;54.92;101428.61;1608379;86;21079;-50
2022/05/21 02:32:42;;;;;;;11.30;3.65;;;;;;;20.93;54.79;101431.48;1606657;88;21060;-51
2022/05/21 02:35:09;;;;;;;10.00;4.08;;;;;;;20.96;54.71;101435.27;1592037;88;21590;-47
2022/05/21 02:40:23;;;;;;;11.57;3.25;;;;;;;20.91;54.74;101434.67;1696554;84;21008;-48
2022/05/21 02:42:50;;;;;;;9.95;3.20;;;;;;;20.94;54.70;101442.43;1636746;85;21048;-50
2022/05/21 02:45:26;;;;;;;9.40;3.50;;;;;;;20.94;54.67;101437.14;1696770;83;21039;-47
2022/05/21 02:47:56;;;;;;;8.28;3.05;;;;;;;20.95;54.59;101448.13;1678466;85;21009;-50
2022/05/21 02:50:27;;;;;;;7.62;3.37;;;;;;;20.95;54.58;101451.23;1679671;84;21028;-48
2022/05/21 02:52:54;;;;;;;7.03;3.22;;;;;;;20.94;54.56;101454.80;1680927;85;21032;-50
2022/05/21 02:55:21;;;;;;;8.95;3.17;;;;;;;20.94;54.55;101460.95;1680721;85;21487;-47
2022/05/21 02:57:48;;;;;;;9.93;3.02;;;;;;;20.92;54.65;101461.96;1680616;85;21052;-49
2022/05/21 03:00:19;;;;;;;6.47;3.08;;;;;;;20.88;54.83;101467.89;1680794;85;21566;-50
2022/05/21 03:02:46;;;;;;;7.50;3.27;;;;;;;20.85;55.07;101465.88;1681002;85;21499;-47
2022/05/21 03:05:13;;;;;;;7.75;2.62;;;;;;;20.84;55.05;101465.02;1680667;85;21069;-50
2022/05/21 03:07:44;;;;;;;5.08;3.08;;;;;;;20.86;55.09;101467.12;1685233;83;21611;-48
2022/05/21 03:10:22;;;;;;;4.37;2.87;;;;;;;20.87;55.01;101459.59;1680896;85;21051;-47
2022/05/21 03:12:53;;;;;;;3.35;3.02;;;;;;;20.88;54.85;101458.62;1680922;85;21503;-47
2022/05/21 03:15:26;;;;;;;5.22;2.52;;;;;;;20.89;54.75;101451.09;1672773;85;21048;-50
2022/05/21 03:17:53;;;;;;;6.55;2.65;;;;;;;20.89;54.51;101453.75;1690680;84;21023;-50
2022/05/21 03:20:20;;;;;;;6.75;2.45;;;;;;;20.89;54.55;101447.13;1698230;83;21109;-49
2022/05/21 03:22:48;;;;;;;4.35;2.60;;;;;;;20.92;54.63;101444.30;1692260;84;21525;-49
2022/05/21 03:25:15;;;;;;;2.75;2.55;;;;;;;20.98;54.84;101432.53;1702236;84;21568;-49
2022/05/21 03:27:43;;;;;;;6.15;2.75;;;;;;;21.08;54.84;101428.97;1649680;84;20998;-49
2022/05/21 03:30:15;;;;;;;7.50;3.35;;;;;;;21.27;54.66;101427.86;1656379;85;21062;-48
2022/05/21 03:32:42;;;;;;;7.12;2.65;;;;;;;21.62;54.23;101429.85;1668859;84;21047;-47
2022/05/21 03:35:10;;;;;;;7.08;3.20;;;;;;;22.15;53.44;101428.99;1659446;84;21047;-50
2022/05/21 03:37:38;;;;;;;4.92;2.55;;;;;;;22.81;52.21;101432.53;1653287;85;21124;-47
2022/05/21 03:40:08;;;;;;;7.85;3.15;;;;;;;23.59;50.45;101437.28;1697763;83;21037;-49
2022/05/21 03:42:36;;;;;;;7.40;3.47;;;;;;;24.35;48.38;101427.74;1693584;84;21501;-47
2022/05/21 03:45:03;;;;;;;5.20;2.50;;;;;;;24.90;46.48;101425.17;1691336;84;21069;-49
2022/05/21 03:47:30;;;;;;;6.95;3.05;;;;;;;25.18;45.45;101428.06;1693851;84;21009;-47
2022/05/21 03:49:57;;;;;;;6.80;2.98;;;;;;;25.24;44.96;101424.95;1689550;83;21049;-49
2022/05/21 03:52:24;;;;;;;4.37;3.10;;;;;;;25.23;44.66;101422.38;1653433;85;21065;-48
2022/05/21 03:54:51;;;;;;;6.67;2.70;;;;;;;25.16;44.54;101420.67;1651554;86;21567;-47
2022/05/21 03:57:18;;;;;;;6.37;3.00;;;;;;;25.03;44.67;101425.16;1683496;84;21046;-50
2022/05/21 03:59:45;;;;;;;7.08;2.75;;;;;;;24.84;44.96;101422.08;1690500;83;21090;-49
2022/05/21 04:02:12;;;;;;;6.87;2.83;;;;;;;24.67;45.33;101423.70;1690711;84;21083;-48
2022/05/21 04:04:39;;;;;;;5.90;2.67;;;;;;;24.45;45.66;101416.37;1690975;84;21107;-49
2022/05/21 04:07:06;;;;;;;4.90;3.40;;;;;;;24.24;45.99;101416.03;1681770;85;21048;-49
2022/05/21 04:09:33;;;;;;;3.33;2.58;;;;;;;24.03;46.32;101416.58;1680709;85;21095;-49
2022/05/21 04:12:00;;;;;;;3.92;2.45;;;;;;;23.83;46.64;101421.05;1667668;84;21095;-50
2022/05/21 04:14:27;;;;;;;3.35;2.08;;;;;;;23.63;46.83;101425.03;1690887;84;21061;-47
2022/05/21 04:16:59;;;;;;;5.28;2.20;;;;;;;23.40;47.24;101426.98;1690760;84;21074;-49
2022/05/21 04:19:27;;;;;;;;;;;;;;;23.29;47.37;101432.09;1693532;84;21498;-45
2022/05/21 04:21:53;;;;;;;3.17;1.70;;;;;;;23.12;47.51;101431.83;1690760;84;20435;-49
2022/05/21 04:24:20;;;;;;;3.08;1.95;;;;;;;22.98;47.77;101433.67;1694399;84;21034;-52
2022/05/21 04:26:47;;;;;;;2.37;2.10;;;;;;;22.89;47.70;101431.58;1660710;85;21530;-50
2022/05/21 04:29:16;;;;;;;2.58;1.85;;;;;;;22.79;47.34;101429.98;1680874;85;21039;-50
2022/05/21 04:31:43;;;;;;;3.30;2.25;;;;;;;22.72;47.28;101438.38;1675996;84;21001;-51
2022/05/21 04:34:10;;;;;;;5.30;1.77;;;;;;;22.67;47.25;101440.48;1658531;84;21098;-49
2022/05/21 04:36:37;;;;;;;3.30;2.25;;;;;;;22.58;47.34;101432.14;1665455;85;21062;-48
2022/05/21 04:39:04;;;;;;;4.67;1.90;;;;;;;22.52;47.23;101428.47;1652859;85;21096;-49
2022/05/21 04:41:33;;;;;;;2.12;1.55;;;;;;;22.52;47.25;101433.77;1657860;84;21097;-47
2022/05/21 04:44:00;;;;;;;4.00;1.98;;;;;;;22.49;47.22;101437.09;1668500;84;21060;-47
2022/05/21 04:46:26;;;;;;;4.25;1.70;;;;;;;22.46;47.38;101443.43;1672165;84;21018;-50
2022/05/21 04:48:53;;;;;;;2.80;1.70;;;;;;;22.45;47.46;101444.39;1673498;84;21056;-49
2022/05/21 04:51:20;;;;;;;4.53;2.00;;;;;;;22.44;47.43;101450.63;1688009;83;21025;-49
2022/05/21 04:53:47;;;;;;;4.60;2.47;;;;;;;22.47;47.16;101454.90;1654428;84;21607;-47
2022/05/21 04:56:15;;;;;;;2.45;2.22;;;;;;;22.49;47.00;101458.31;1670010;84;21086;-50
2022/05/21 04:58:42;;;;;;;3.75;2.12;;;;;;;22.50;46.88;101458.21;1674888;85;21652;-46
2022/05/21 05:01:11;;;;;;;2.42;1.95;;;;;;;22.51;46.50;101449.33;1664455;84;21012;-46
2022/05/21 05:03:39;;;;;;;7.12;1.92;;;;;;;22.55;46.23;101437.58;1657137;84;21021;-47
2022/05/21 05:06:06;;;;;;;2.27;1.65;;;;;;;22.60;46.22;101440.86;1675522;84;21595;-47
2022/05/21 05:08:33;;;;;;;3.08;1.77;;;;;;;22.73;46.51;101434.80;1668234;84;21041;-49
2022/05/21 05:11:01;;;;;;;3.67;1.72;;;;;;;22.98;46.20;101440.30;1695265;84;21061;-47
2022/05/21 05:13:28;;;;;;;2.45;1.90;;;;;;;23.34;45.48;101430.04;1690227;84;21058;-49
2022/05/21 05:15:55;;;;;;;5.80;1.98;;;;;;;23.76;44.59;101425.91;1675445;85;21018;-45
2022/05/21 05:18:22;;;;;;;5.17;2.02;;;;;;;24.24;43.37;101416.50;1680968;85;21042;-48
2022/05/21 05:20:49;;;;;;;2.37;1.57;;;;;;;24.69;41.97;101413.83;1710009;83;21145;-48
2022/05/21 05:23:16;;;;;;;2.42;1.80;;;;;;;25.11;41.13;101408.14;1689419;84;21593;-50
2022/05/21 05:25:43;;;;;;;3.80;1.90;;;;;;;25.50;40.30;101414.61;1679039;83;21092;-46
2022/05/21 05:28:16;;;;;;;5.58;1.95;;;;;;;25.91;39.37;101412.00;1663306;84;21581;-45
2022/05/21 05:30:43;;;;;;;4.53;1.80;;;;;;;26.25;38.83;101410.72;1654177;85;21137;-47
2022/05/21 05:33:11;;;;;;;2.27;1.80;;;;;;;26.62;37.95;101396.70;1647858;86;21082;-47
2022/05/21 05:35:39;;;;;;;5.60;2.58;;;;;;;27.07;36.94;101405.11;1660877;84;21121;-48
2022/05/21 05:38:08;;;;;;;2.80;1.90;;;;;;;27.45;36.03;101398.52;1670036;84;21066;-45
2022/05/21 05:40:35;;;;;;;3.35;1.98;;;;;;;27.82;35.23;101395.84;1637820;85;21006;-47
2022/05/21 05:43:02;;;;;;;2.20;2.00;;;;;;;28.13;34.70;101394.47;1631419;85;21073;-45
2022/05/21 05:45:29;;;;;;;2.27;2.02;;;;;;;28.42;33.95;101393.31;1649646;86;21058;-45
2022/05/21 05:47:57;;;;;;;5.20;2.15;;;;;;;28.67;33.29;101391.59;1669424;84;21597;-45
2022/05/21 05:50:24;;;;;;;4.30;1.92;;;;;;;28.85;33.84;101390.48;1642650;85;21001;-48
2022/05/21 05:52:52;;;;;;;8.13;2.50;;;;;;;28.96;33.94;101392.56;1644998;84;21128;-48
2022/05/21 05:55:21;;;;;;;4.03;2.30;;;;;;;29.03;34.01;101386.17;1641023;85;21113;-47
2022/05/21 05:57:51;;;;;;;5.60;2.70;;;;;;;29.11;34.43;101389.02;1646361;85;21017;-46
2022/05/21 06:00:20;;;;;;;;;;;;;;;29.22;35.47;101384.06;1660431;84;21077;-48
2022/05/21 06:02:59;;;;;;;3.50;2.08;;;;;;;29.27;36.05;101385.82;1637181;85;20123;-45
2022/05/21 06:05:30;;;;;;;4.15;2.58;;;;;;;29.26;36.16;101380.98;1656067;84;21024;-49
2022/05/21 06:08:03;;;;;;;5.70;2.95;;;;;;;29.24;36.37;101380.75;1626017;86;21020;-45
2022/05/21 06:10:36;;;;;;;6.28;2.40;;;;;;;29.22;36.19;101373.34;1614541;87;21774;-49
2022/05/21 06:13:05;;;;;;;7.53;2.77;;;;;;;29.21;36.13;101364.94;1627574;87;21522;-48
2022/05/21 06:15:34;;;;;;;9.00;2.60;;;;;;;29.23;36.28;101350.91;1628132;86;21099;-48
2022/05/21 06:18:09;;;;;;;6.05;2.72;;;;;;;29.31;36.21;101349.71;1623800;87;21057;-47
2022/05/21 06:20:37;;;;;;;5.70;2.65;;;;;;;29.42;35.97;101347.77;1625809;86;21030;-48
2022/05/21 06:23:04;;;;;;;4.75;2.47;;;;;;;29.54;35.78;101351.16;1630295;86;21122;-47
2022/05/21 06:25:35;;;;;;;3.75;2.20;;;;;;;29.57;35.32;101345.00;1626244;87;21114;-47
2022/05/21 06:28:04;;;;;;;6.12;2.47;;;;;;;29.54;35.06;101345.78;1642206;85;21132;-46
2022/05/21 06:30:33;;;;;;;3.87;2.40;;;;;;;29.49;34.98;101337.34;1607490;86;21669;-48
2022/05/21 06:33:18;;;;;;;4.87;2.55;;;;;;;29.42;35.04;101332.17;1648780;86;21062;-45
2022/05/21 06:35:48;;;;;;;6.72;2.70;;;;;;;29.34;35.54;101328.00;1557617;90;21542;-45
2022/05/21 06:38:15;;;;;;;5.90;2.95;;;;;;;29.21;36.32;101324.73;1541478;92;21117;-51
2022/05/21 06:40:42;;;;;;;5.15;2.87;;;;;;;29.07;36.78;101331.80;1582614;90;21074;-46
2022/05/21 06:43:10;;;;;;;6.20;3.35;;;;;;;28.95;37.27;101333.24;1577776;89;21115;-48
2022/05/21 06:45:37;;;;;;;6.75;2.52;;;;;;;28.87;37.47;101338.44;1578662;90;21114;-45
2022/05/21 06:48:07;;;;;;;9.70;3.12;;;;;;;28.80;37.53;101334.63;1575149;89;21107;-48
2022/05/21 06:50:35;;;;;;;6.28;2.70;;;;;;;28.73;37.48;101325.43;1553910;89;21151;-48
2022/05/21 06:53:01;;;;;;;4.03;2.83;;;;;;;28.64;37.69;101316.89;1569134;89;21179;-51
2022/05/21 06:55:28;;;;;;;5.58;2.20;;;;;;;28.57;37.85;101325.09;1560677;90;21149;-47
2022/05/21 06:57:56;;;;;;;9.20;3.37;;;;;;;28.47;38.14;101325.52;1574952;90;21054;-48
2022/05/21 07:00:23;;;;;;;5.67;2.90;;;;;;;28.40;38.34;101322.17;1570826;89;21073;-46
2022/05/21 07:02:50;;;;;;;4.67;3.10;;;;;;;28.35;38.34;101324.39;1581620;89;21577;-48
2022/05/21 07:08:07;;;;;;;7.15;2.65;;;;;;;28.25;38.62;101321.67;1587908;89;21105;-48
2022/05/21 07:10:35;;;;;;;5.45;2.80;;;;;;;28.24;38.57;101319.97;1575458;91;21565;-45
2022/05/21 07:13:02;;;;;;;6.40;2.50;;;;;;;28.23;38.82;101312.94;1578436;89;21125;-49
2022/05/21 07:15:29;;;;;;;5.25;3.12;;;;;;;28.24;38.75;101311.94;1578470;89;21082;-48
2022/05/21 07:18:00;;;;;;;8.15;2.55;;;;;;;28.24;38.84;101313.76;1578444;90;21061;-47
2022/05/21 07:20:28;;;;;;;4.70;2.42;;;;;;;28.23;38.76;101315.61;1578483;89;21089;-45
2022/05/21 07:22:54;;;;;;;8.58;3.00;;;;;;;28.21;38.77;101313.56;1578560;89;21610;-49
2022/05/21 07:25:24;;;;;;;5.65;2.25;;;;;;;28.19;38.79;101300.80;1578294;89;21121;-46
2022/05/21 07:27:52;;;;;;;3.95;2.60;;;;;;;28.19;38.93;101296.79;1578817;89;21082;-47
2022/05/21 07:30:19;;;;;;;5.60;2.67;;;;;;;28.21;39.07;101298.84;1583777;85;21065;-48
2022/05/21 07:32:50;;;;;;;6.12;2.52;;;;;;;28.27;39.08;101294.77;1679746;85;21018;-48
2022/05/21 07:35:15;;;;;;;6.67;3.15;;;;;;;28.32;38.45;101290.70;1664429;85;21069;-48
2022/05/21 07:37:43;;;;;;;4.00;2.37;;;;;;;28.18;38.56;101287.91;1689247;83;21526;-47
2022/05/21 07:40:11;;;;;;;6.92;2.40;;;;;;;27.97;39.12;101287.55;1690903;84;21059;-46
2022/05/21 07:42:38;;;;;;;4.72;2.55;;;;;;;27.78;39.19;101291.44;1690844;83;21511;-47
2022/05/21 07:45:07;;;;;;;5.42;2.90;;;;;;;27.57;39.49;101298.59;1691605;84;21524;-48
2022/05/21 07:47:33;;;;;;;5.25;2.40;;;;;;;27.38;39.87;101296.12;1683162;85;21567;-48
2022/05/21 07:50:00;;;;;;;5.85;2.98;;;;;;;27.21;40.17;101291.28;1680143;84;21084;-46
2022/05/21 07:52:28;;;;;;;4.90;2.75;;;;;;;27.04;40.61;101288.28;1673813;84;21085;-46
2022/05/21 07:54:56;;;;;;;5.42;2.50;;;;;;;26.89;40.60;101298.42;1683718;83;21029;-48
2022/05/21 07:57:23;;;;;;;5.47;2.80;;;;;;;26.68;40.75;101296.11;1685576;84;21061;-46
2022/05/21 07:59:50;;;;;;;4.92;2.60;;;;;;;26.43;41.13;101289.21;1670929;84;21082;-50
2022/05/21 08:02:17;;;;;;;4.33;2.60;;;;;;;26.20;41.79;101277.30;1658816;85;21000;-48
2022/05/21 08:04:46;;;;;;;5.45;2.52;;;;;;;26.03;41.91;101284.43;1656216;84;21286;-48
2022/05/21 08:07:12;;;;;;;3.83;2.40;;;;;;;25.87;42.28;101285.22;1664547;84;21492;-48
2022/05/21 08:09:40;;;;;;;4.70;2.50;;;;;;;25.74;42.64;101288.83;1668921;84;21076;-47
2022/05/21 08:12:08;;;;;;;3.98;2.33;;;;;;;25.64;42.75;101285.17;1658719;84;21554;-48
2022/05/21 08:14:35;;;;;;;5.40;2.58;;;;;;;25.53;43.07;101282.45;1682807;84;21101;-50
2022/05/21 08:17:03;;;;;;;4.80;2.58;;;;;;;25.41;43.31;101274.06;1669143;84;21532;-47
2022/05/21 08:19:30;;;;;;;4.40;2.62;;;;;;;25.32;43.75;101276.06;1665968;84;21592;-46
2022/05/21 08:26:56;;;;;;;4.92;2.40;;;;;;;25.28;43.94;101271.94;1673425;84;21513;-47
2022/05/21 08:27:13;;;;;;;3.47;2.50;;;;;;;25.26;44.07;101265.88;1685287;83;21092;-47
2022/05/21 08:29:41;;;;;;;7.60;2.67;;;;;;;25.31;43.88;101266.84;1669172;84;21363;-47
2022/05/21 08:32:13;;;;;;;3.20;2.30;;;;;;;25.32;43.93;101261.89;1697088;83;21059;-50
2022/05/21 08:34:38;;;;;;;2.50;2.25;;;;;;;25.35;43.90;101254.51;1661264;84;21076;-50
2022/05/21 08:37:04;;;;;;;4.62;2.40;;;;;;;25.40;43.77;101259.02;1697930;83;21085;-51
2022/05/21 08:39:32;;;;;;;3.00;1.92;;;;;;;25.46;43.42;101245.27;1705223;83;21038;-49
2022/05/21 08:42:13;;;;;;;5.10;2.40;;;;;;;25.46;43.42;101245.27;1661310;84;21072;-47
2022/05/21 08:44:49;;;;;;;5.45;3.10;;;;;;;25.51;43.44;101247.08;1663919;83;21009;-49
2022/05/21 08:47:30;;;;;;;4.83;2.65;;;;;;;25.58;43.32;101243.00;1687629;84;21014;-45
2022/05/21 08:50:01;;;;;;;2.65;2.12;;;;;;;25.58;43.32;101243.00;1660819;84;21545;-47
2022/05/21 08:52:32;;;;;;;2.87;2.50;;;;;;;25.62;43.14;101243.13;1686828;84;21044;-49
2022/05/21 08:55:00;;;;;;;7.10;2.72;;;;;;;25.65;43.08;101234.05;1664656;84;21097;-50
2022/05/21 08:57:44;;;;;;;6.70;2.75;;;;;;;25.65;43.08;101234.05;1683259;83;21044;-49
2022/05/21 09:00:16;;;;;;;3.37;2.10;;;;;;;25.65;43.00;101246.05;1590912;89;21136;-50
2022/05/21 09:02:43;;;;;;;4.08;2.40;;;;;;;25.65;43.00;101246.05;1585807;88;21112;-50
2022/05/21 09:05:13;;;;;;;8.00;2.62;;;;;;;25.54;42.85;101241.53;1580606;87;21025;-49
2022/05/21 09:08:05;;;;;;;6.53;2.83;;;;;;;25.54;42.85;101241.53;1595517;89;21156;-50
2022/05/21 09:11:01;;;;;;;4.05;2.17;;;;;;;25.47;42.86;101248.28;1568247;90;21201;-50
2022/05/21 09:13:34;;;;;;;6.42;2.17;;;;;;;25.34;43.17;101242.64;1549905;91;21546;-49
2022/05/21 09:18:50;;;;;;;5.15;2.22;;;;;;;25.20;43.73;101238.84;1570041;90;21117;-47
2022/05/21 09:21:23;;;;;;;2.83;1.95;;;;;;;25.19;43.75;101230.47;1543372;91;21597;-46
2022/05/21 09:23:54;;;;;;;3.77;2.30;;;;;;;25.26;43.48;101226.39;1553882;91;21398;-49
2022/05/21 09:26:22;;;;;;;;;;;;;;;25.26;43.48;101226.39;1551143;91;21078;-47
2022/05/21 09:28:50;;;;;;;4.50;2.50;;;;;;;25.32;42.82;101229.45;1545217;91;21197;-49
2022/05/21 09:31:31;;;;;;;5.60;2.05;;;;;;;25.34;42.34;101222.66;1560498;90;21066;-47
2022/05/21 09:34:31;;;;;;;3.70;2.37;;;;;;;25.30;42.57;101221.20;1558160;91;21578;-50
2022/05/21 09:37:00;;;;;;;5.60;2.40;;;;;;;25.28;42.90;101221.33;1545586;91;21637;-49
2022/05/21 09:39:34;;;;;;;8.45;2.70;;;;;;;25.25;43.44;101218.02;1528599;91;21612;-50
2022/05/21 09:45:27;;;;;;;11.22;2.60;;;;;;;25.24;43.46;101206.54;1538044;92;21093;-49
2022/05/21 09:48:11;;;;;;;6.22;3.50;;;;;;;25.19;43.68;101216.67;1504815;94;21150;-48
2022/05/21 09:50:54;;;;;;;5.05;2.27;;;;;;;25.14;43.67;101206.02;1459642;97;21092;-49
2022/05/21 09:53:27;;;;;;;7.12;2.05;;;;;;;25.13;44.11;101197.64;1471989;96;21087;-50
2022/05/21 09:56:19;;;;;;;4.55;2.45;;;;;;;25.13;44.11;101197.64;1463532;95;21153;-48
2022/05/21 09:58:50;;;;;;;4.87;2.40;;;;;;;25.18;44.17;101196.34;1466366;97;21186;-47
2022/05/21 10:01:40;;;;;;;4.57;2.30;;;;;;;25.23;44.07;101191.98;1441498;98;21658;-52
2022/05/21 10:04:22;;;;;;;3.02;2.12;;;;;;;25.24;44.36;101190.56;1378625;103;21129;-51
2022/05/21 10:12:40;;;;;;;5.53;2.30;;;;;;;25.32;45.03;101185.50;1357572;104;21188;-49
2022/05/21 10:15:27;;;;;;;3.00;2.05;;;;;;;25.42;44.95;101181.19;1351293;105;21644;-48
2022/05/21 10:18:14;;;;;;;4.65;2.62;;;;;;;25.46;45.08;101179.98;1344532;106;21146;-49
2022/05/21 10:20:44;;;;;;;7.90;2.37;;;;;;;25.62;45.46;101175.64;1327508;107;21222;-51
2022/05/21 10:23:42;;;;;;;6.87;2.33;;;;;;;25.62;45.46;101175.64;1340953;107;21166;-47
2022/05/21 10:26:51;;;;;;;5.85;2.33;;;;;;;25.83;44.69;101161.98;1327238;107;21265;-49
2022/05/21 10:29:39;;;;;;;8.75;2.40;;;;;;;25.83;44.69;101161.98;1341067;106;21157;-47
2022/05/21 10:32:20;;;;;;;4.97;2.30;;;;;;;25.97;44.58;101163.54;1328288;107;21153;-49
2022/05/21 10:35:18;;;;;;;7.22;2.20;;;;;;;26.07;44.28;101159.20;1329212;107;21152;-46
2022/05/21 10:38:20;;;;;;;6.22;2.40;;;;;;;26.14;44.28;101149.75;1338588;105;21168;-50
2022/05/21 10:41:13;;;;;;;6.90;2.35;;;;;;;26.24;44.35;101133.37;1357585;105;21188;-46
2022/05/21 10:44:04;;;;;;;5.33;2.47;;;;;;;26.30;43.88;101128.39;1335374;106;21174;-50
2022/05/21 10:46:51;;;;;;;7.15;2.40;;;;;;;26.30;43.88;101128.39;1332531;106;21761;-46
2022/05/21 10:50:02;;;;;;;6.35;2.27;;;;;;;26.32;43.89;101126.92;1361277;103;21696;-47
2022/05/21 10:53:06;;;;;;;6.25;2.65;;;;;;;26.32;43.98;101125.59;1373618;102;21336;-47
2022/05/21 10:55:56;;;;;;;4.25;2.60;;;;;;;26.32;44.08;101125.11;1402193;101;21218;-49
2022/05/21 10:58:37;;;;;;;5.75;2.70;;;;;;;26.32;44.01;101122.92;1399933;98;21616;-51
2022/05/21 11:01:14;;;;;;;8.03;2.87;;;;;;;26.29;44.00;101107.18;1464888;96;21158;-50
2022/05/21 11:04:09;;;;;;;9.80;3.37;;;;;;;26.20;44.54;101089.23;1471913;95;21173;-47
2022/05/21 11:07:05;;;;;;;5.58;2.77;;;;;;;26.20;44.54;101089.23;1460447;95;21736;-53
2022/05/21 11:10:05;;;;;;;8.20;3.33;;;;;;;26.17;44.47;101081.51;1529324;92;21074;-49
2022/05/21 11:12:59;;;;;;;8.98;5.78;;;;;;;26.18;44.60;101097.86;1531239;91;21083;-47
2022/05/21 11:15:52;;;;;;;5.65;2.77;;;;;;;26.18;44.60;101097.86;1538597;91;21221;-47
2022/05/21 11:18:33;;;;;;;28.10;18.67;;;;;;;26.14;44.50;101099.08;1530384;91;21122;-46
2022/05/21 11:21:13;;;;;;;8.88;3.30;;;;;;;25.99;44.96;101102.97;1527037;91;21559;-48
2022/05/21 11:24:14;;;;;;;10.93;4.83;;;;;;;25.99;44.96;101102.97;1539083;91;21770;-50
2022/05/21 11:27:06;;;;;;;9.58;3.15;;;;;;;25.93;45.07;101098.95;1530322;92;21105;-49
2022/05/21 11:29:44;;;;;;;6.83;3.10;;;;;;;25.89;45.24;101093.98;1478053;96;21165;-48
2022/05/21 11:38:18;;;;;;;7.25;3.08;;;;;;;25.81;45.18;101083.94;1501442;93;21142;-49
2022/05/21 11:47:14;;;;;;;6.53;2.98;;;;;;;25.71;45.55;101073.17;1388128;100;21226;-49
2022/05/21 11:50:00;;;;;;;6.45;2.62;;;;;;;25.65;45.59;101073.66;1395080;101;21162;-53
2022/05/21 11:52:38;;;;;;;6.55;2.65;;;;;;;25.57;45.67;101066.77;1393985;100;21896;-50
2022/05/21 11:55:15;;;;;;;5.37;2.35;;;;;;;25.51;45.89;101072.55;1394693;100;21108;-51
2022/05/21 11:57:51;;;;;;;5.20;2.52;;;;;;;25.48;46.06;101066.14;1386810;101;21611;-49
2022/05/21 12:00:25;;;;;;;9.30;2.25;;;;;;;25.50;45.89;101063.34;1397231;100;21188;-49
2022/05/21 12:02:59;;;;;;;5.33;2.98;;;;;;;25.49;45.96;101054.50;1409562;98;21155;-50
2022/05/21 12:05:41;;;;;;;8.33;2.77;;;;;;;25.49;46.04;101054.50;1447235;97;21560;-48
2022/05/21 12:08:25;;;;;;;8.90;3.17;;;;;;;25.49;46.11;101055.83;1444025;97;21612;-49
2022/05/21 12:11:04;;;;;;;6.92;2.77;;;;;;;25.52;46.12;101048.95;1452137;97;21216;-50
2022/05/21 12:13:47;;;;;;;5.70;2.42;;;;;;;25.58;45.92;101039.61;1450324;98;21189;-47
2022/05/21 12:19:02;;;;;;;6.37;2.62;;;;;;;25.66;45.65;101019.38;1413583;99;21218;-46
2022/05/21 12:21:39;;;;;;;5.60;2.40;;;;;;;25.66;45.65;101019.38;1416376;99;21104;-50
2022/05/21 12:24:27;;;;;;;10.20;3.17;;;;;;;25.67;45.41;101014.90;1425419;99;21125;-48